Time;durP1;ratioP1;P1;durP2;ratioP2;P2;SDS_P1;SDS_P2;PMS_P1;PMS_P2;Temp;Humidity;BMP_temperature;BMP_pressure;BME280_temperature;BME280_humidity;BME280_pressure;Samples;Min_cycle;Max_cycle;Signal;HPM_P1;HPM_P2
2023/12/28 00:04:14;;;;;;;128.97;45.33;;;10.70;81.60;;;;;;767552;170;26979;-87
2023/12/28 00:12:52;;;;;;;7.67;4.10;;;10.50;86.50;;;;;;804595;177;26959;-87
2023/12/28 00:15:35;;;;;;;11.80;5.83;;;10.50;86.50;;;;;;808595;177;26516;-89
2023/12/28 00:18:26;;;;;;;63.83;21.30;;;10.50;86.90;;;;;;807724;176;26443;-89
2023/12/28 00:24:03;;;;;;;82.93;28.70;;;10.60;87.10;;;;;;734947;173;27040;-89
2023/12/28 00:27:01;;;;;;;28.97;10.97;;;10.60;86.80;;;;;;799197;179;26419;-89
2023/12/28 00:29:45;;;;;;;37.93;17.10;;;10.60;88.10;;;;;;791081;179;26497;-88
2023/12/28 00:32:30;;;;;;;11.50;6.10;;;10.60;89.70;;;;;;784861;179;26487;-89
2023/12/28 00:35:36;;;;;;;20.33;11.23;;;10.60;89.70;;;;;;799772;179;26753;-89
2023/12/28 00:38:03;;;;;;;54.27;20.93;;;10.60;88.50;;;;;;796753;179;26527;-89
2023/12/28 00:40:29;;;;;;;89.07;31.90;;;10.60;89.20;;;;;;798968;176;27022;-89
2023/12/28 00:42:56;;;;;;;138.63;46.80;;;10.60;89.10;;;;;;790447;181;26561;-90
2023/12/28 00:45:23;;;;;;;35.63;13.87;;;10.60;89.30;;;;;;793986;180;26508;-90
2023/12/28 00:47:51;;;;;;;77.77;31.87;;;10.60;89.20;;;;;;796366;180;26512;-89
2023/12/28 00:53:36;;;;;;;24.30;11.23;;;10.60;88.90;;;;;;793114;177;26492;-89
2023/12/28 00:56:36;;;;;;;;;;;;;;;;;;;;;
2023/12/28 00:59:25;;;;;;;24.47;12.73;;;10.60;88.90;;;;;;795219;176;27069;-89
2023/12/28 01:05:04;;;;;;;24.13;9.87;;;10.70;89.10;;;;;;795334;179;26548;-91
2023/12/28 01:07:57;;;;;;;;;;;;;;;;;;;;;
2023/12/28 01:10:42;;;;;;;62.47;26.03;;;10.70;88.70;;;;;;812731;169;26540;-89
2023/12/28 01:13:30;;;;;;;19.83;8.90;;;10.70;89.20;;;;;;797671;179;26470;-87
2023/12/28 02:03:44;;;;;;;2.90;2.30;;;10.60;90.30;;;;;;764737;187;27104;-88
2023/12/28 02:06:41;;;;;;;9.77;4.53;;;10.60;90.30;;;;;;763247;186;26669;-89
2023/12/28 02:09:33;;;;;;;3.13;2.20;;;10.60;90.80;;;;;;764580;186;26810;-88
2023/12/28 02:12:16;;;;;;;4.27;2.50;;;10.60;90.80;;;;;;765491;186;26579;-89
2023/12/28 02:15:09;;;;;;;2.93;2.30;;;10.60;90.50;;;;;;770352;183;26513;-89
2023/12/28 02:21:31;;;;;;;;;;;;;;;;;;;;;
2023/12/28 02:23:51;;;;;;;2.80;2.20;;;10.70;91.30;;;;;;759951;182;27307;-89
2023/12/28 02:32:14;;;;;;;2.30;2.10;;;10.70;90.80;;;;;;763504;187;26540;-89
2023/12/28 02:34:55;;;;;;;2.83;2.17;;;10.70;90.80;;;;;;770062;185;27127;-88
2023/12/28 02:37:45;;;;;;;3.10;2.10;;;10.70;90.30;;;;;;772411;185;27057;-88
2023/12/28 02:40:18;;;;;;;3.90;2.47;;;10.70;90.80;;;;;;773092;184;27050;-89
2023/12/28 02:45:59;;;;;;;2.83;2.00;;;10.80;90.50;;;;;;757481;188;27008;-89
2023/12/28 02:48:38;;;;;;;2.47;2.00;;;10.80;90.70;;;;;;754984;188;27017;-88
2023/12/28 02:51:24;;;;;;;3.20;2.30;;;10.80;91.00;;;;;;756436;188;26586;-88
2023/12/28 02:54:03;;;;;;;3.43;2.13;;;10.80;91.10;;;;;;757169;187;27035;-90
2023/12/28 02:56:45;;;;;;;3.60;2.23;;;10.80;90.60;;;;;;756246;186;27163;-90
2023/12/28 02:59:24;;;;;;;2.67;2.13;;;10.80;91.30;;;;;;756598;186;26573;-88
2023/12/28 03:02:16;;;;;;;2.93;2.13;;;10.70;91.00;;;;;;758344;188;26536;-88
2023/12/28 03:08:13;;;;;;;3.33;2.43;;;10.70;91.20;;;;;;733281;194;26642;-87
2023/12/28 07:30:33;;;;;;;7.57;4.00;;;10.40;86.90;;;;;;807676;177;26531;-87
2023/12/28 07:33:11;;;;;;;7.77;3.70;;;10.30;86.80;;;;;;808400;177;27048;-89
2023/12/28 07:35:39;;;;;;;8.90;3.80;;;10.30;86.90;;;;;;804157;171;28228;-88
2023/12/28 07:38:21;;;;;;;6.80;3.53;;;10.20;87.50;;;;;;800120;177;26488;-89
2023/12/28 07:40:56;;;;;;;10.97;3.90;;;10.20;87.40;;;;;;764528;184;26523;-89
2023/12/28 07:43:53;;;;;;;;;;;;;;;;;;;;;
2023/12/28 07:46:26;;;;;;;8.40;3.23;;;10.30;87.30;;;;;;793293;180;26505;-90
2023/12/28 07:49:28;;;;;;;8.53;3.80;;;10.20;87.60;;;;;;794161;180;26527;-89
2023/12/28 08:12:07;;;;;;;7.77;3.20;;;10.40;86.90;;;;;;758869;170;27056;-87
2023/12/28 08:14:35;;;;;;;9.67;3.60;;;10.40;87.50;;;;;;791828;177;26654;-89
2023/12/28 08:17:17;;;;;;;7.67;3.20;;;10.40;87.50;;;;;;790519;180;26565;-87
2023/12/28 08:19:52;;;;;;;5.93;3.20;;;10.40;86.70;;;;;;790235;181;26478;-88
2023/12/28 08:25:27;;;;;;;11.93;3.40;;;10.50;87.80;;;;;;791396;181;26607;-89
2023/12/28 08:28:07;;;;;;;9.13;3.57;;;10.60;87.30;;;;;;786162;181;26555;-88
2023/12/28 08:31:08;;;;;;;10.67;3.70;;;10.50;87.20;;;;;;788986;180;27028;-89
2023/12/28 08:36:29;;;;;;;8.97;3.37;;;10.60;85.60;;;;;;758925;183;26519;-88
2023/12/28 08:39:23;;;;;;;14.13;3.37;;;10.60;86.30;;;;;;787688;178;26456;-89
2023/12/28 08:42:05;;;;;;;10.27;3.10;;;10.70;85.60;;;;;;789459;181;26485;-89
2023/12/28 08:55:35;;;;;;;10.43;3.37;;;10.70;86.90;;;;;;798439;171;27076;-87
2023/12/28 09:01:04;;;;;;;7.73;2.90;;;10.80;85.90;;;;;;759465;182;26481;-87
2023/12/28 09:23:12;;;;;;;6.83;3.53;;;11.10;84.40;;;;;;770454;184;26540;-88
2023/12/28 09:25:39;;;;;;;10.20;3.50;;;11.10;85.10;;;;;;785246;178;26993;-87
2023/12/28 09:28:06;;;;;;;11.47;3.43;;;11.10;83.90;;;;;;797014;177;26742;-86
2023/12/28 09:30:45;;;;;;;9.27;3.33;;;11.20;84.60;;;;;;810066;176;26487;-89
2023/12/28 09:33:13;;;;;;;7.63;3.30;;;11.20;84.10;;;;;;809323;177;26457;-89
2023/12/28 09:35:40;;;;;;;8.33;3.17;;;11.30;83.50;;;;;;809579;177;26460;-88
2023/12/28 09:38:07;;;;;;;8.00;3.13;;;11.20;83.40;;;;;;786763;181;26485;-89
2023/12/28 09:40:33;;;;;;;11.60;3.80;;;11.30;83.50;;;;;;794255;177;27042;-88
2023/12/28 09:43:17;;;;;;;10.13;3.30;;;11.40;83.40;;;;;;791557;180;26495;-89
2023/12/28 09:45:43;;;;;;;8.53;2.93;;;11.40;81.80;;;;;;805409;177;26544;-86
2023/12/28 09:48:27;;;;;;;9.83;3.23;;;11.50;81.70;;;;;;785905;181;27044;-87
2023/12/28 09:51:22;;;;;;;11.47;3.03;;;11.50;83.20;;;;;;781011;183;27058;-88
2023/12/28 09:53:49;;;;;;;10.37;3.03;;;11.50;81.90;;;;;;781185;179;26494;-87
2023/12/28 09:56:16;;;;;;;11.17;4.00;;;11.70;81.10;;;;;;781137;179;26511;-88
2023/12/28 09:58:44;;;;;;;7.13;3.20;;;11.70;81.70;;;;;;780482;179;27074;-88
2023/12/28 10:01:10;;;;;;;8.67;3.60;;;11.70;81.10;;;;;;777821;180;26457;-88
2023/12/28 10:03:37;;;;;;;12.67;3.47;;;11.80;81.00;;;;;;790564;180;26528;-87
2023/12/28 10:06:04;;;;;;;8.40;2.80;;;11.80;80.50;;;;;;790782;181;26851;-88
2023/12/28 10:08:30;;;;;;;8.23;3.40;;;11.90;81.20;;;;;;796205;180;26486;-87
2023/12/28 10:10:58;;;;;;;15.00;3.60;;;11.90;80.10;;;;;;810108;176;26997;-87
2023/12/28 10:13:24;;;;;;;13.07;3.70;;;12.10;80.10;;;;;;808712;174;26475;-88
2023/12/28 10:15:50;;;;;;;12.03;2.70;;;12.20;80.30;;;;;;808285;175;27001;-86
2023/12/28 10:18:19;;;;;;;8.80;3.27;;;12.70;76.50;;;;;;808398;174;26457;-88
2023/12/28 10:20:45;;;;;;;10.13;3.10;;;13.20;75.40;;;;;;808129;175;26969;-88
2023/12/28 10:23:12;;;;;;;8.73;3.93;;;13.10;74.00;;;;;;808545;174;26470;-88
2023/12/28 10:28:42;;;;;;;12.10;4.47;;;13.40;71.90;;;;;;768443;185;26527;-89
2023/12/28 10:31:08;;;;;;;15.70;6.07;;;13.40;72.70;;;;;;796298;178;27017;-87
2023/12/28 10:33:57;;;;;;;24.13;11.47;;;13.40;72.40;;;;;;804332;175;26439;-87
2023/12/28 10:36:24;;;;;;;18.43;6.73;;;13.90;70.40;;;;;;811782;174;26465;-88
2023/12/28 10:39:17;;;;;;;10.00;3.30;;;14.30;68.50;;;;;;808308;174;28038;-88
2023/12/28 10:41:44;;;;;;;12.93;2.93;;;14.60;67.80;;;;;;805723;177;26527;-89
2023/12/28 10:44:11;;;;;;;10.77;3.13;;;15.10;64.20;;;;;;810473;177;26493;-86
2023/12/28 10:46:39;;;;;;;21.00;8.33;;;15.10;62.80;;;;;;811151;174;26525;-88
2023/12/28 10:49:06;;;;;;;20.97;8.23;;;14.70;63.40;;;;;;786290;182;26474;-87
2023/12/28 10:51:40;;;;;;;16.77;6.67;;;14.60;63.20;;;;;;811531;174;26536;-89
2023/12/28 10:54:15;;;;;;;13.27;4.40;;;14.80;64.10;;;;;;782227;173;26599;-88
2023/12/28 10:57:32;;;;;;;22.10;7.00;;;15.20;62.10;;;;;;821876;173;26435;-87
2023/12/28 11:00:26;;;;;;;20.10;8.80;;;14.50;63.30;;;;;;795080;177;26681;-88
2023/12/28 11:11:55;;;;;;;12.53;3.67;;;15.20;60.40;;;;;;774256;169;27022;-88
2023/12/28 11:31:03;;;;;;;80.07;32.90;;;15.70;58.60;;;;;;780239;183;26497;-88
2023/12/28 12:45:59;;;;;;;45.03;16.67;;;16.30;55.40;;;;;;776922;181;27031;-86
2023/12/28 12:48:42;;;;;;;106.40;43.67;;;16.40;56.30;;;;;;782952;181;26535;-87
2023/12/28 12:51:37;;;;;;;25.63;10.77;;;16.30;54.80;;;;;;784045;178;27001;-88
2023/12/28 12:54:26;;;;;;;53.33;23.13;;;16.50;55.50;;;;;;784794;181;26477;-87
2023/12/28 13:03:21;;;;;;;18.53;8.10;;;15.10;58.40;;;;;;799918;178;26481;-88
2023/12/28 13:06:23;;;;;;;97.27;36.83;;;14.80;59.00;;;;;;808914;171;26544;-89
2023/12/28 13:09:14;;;;;;;;;;;;;;;;;;;;;
2023/12/28 13:14:51;;;;;;;67.27;26.53;;;14.50;59.70;;;;;;778959;180;26566;-86
2023/12/28 13:17:28;;;;;;;157.20;61.77;;;14.40;59.80;;;;;;763619;184;26511;-88
2023/12/28 13:20:28;;;;;;;75.83;30.90;;;14.70;59.20;;;;;;762961;186;26646;-86
2023/12/28 13:23:09;;;;;;;180.73;68.10;;;14.50;59.60;;;;;;786230;181;26492;-86
2023/12/28 13:26:08;;;;;;;411.37;168.03;;;14.30;59.90;;;;;;776576;180;26567;-89
2023/12/28 13:29:06;;;;;;;51.83;21.27;;;14.20;61.00;;;;;;782612;180;26509;-87
2023/12/28 13:40:36;;;;;;;143.30;53.00;;;14.20;60.70;;;;;;766574;169;26605;-88
2023/12/28 13:43:29;;;;;;;26.27;10.33;;;14.00;62.40;;;;;;798472;178;26473;-87
2023/12/28 13:46:26;;;;;;;;;;;;;;;;;;;;;
2023/12/28 13:49:48;;;;;;;33.57;12.30;;;13.80;63.80;;;;;;812416;174;26510;-89
2023/12/28 14:11:47;;;;;;;23.07;8.10;;;13.30;65.60;;;;;;744352;169;26606;-90
2023/12/28 14:14:31;;;;;;;30.27;9.90;;;13.20;66.90;;;;;;785675;180;27055;-87
2023/12/28 14:20:11;;;;;;;21.60;7.27;;;12.80;67.70;;;;;;790049;180;26556;-88
2023/12/28 14:22:59;;;;;;;18.47;6.07;;;12.80;67.60;;;;;;773776;183;26525;-87
2023/12/28 14:50:54;;;;;;;100.17;32.40;;;12.30;70.80;;;;;;799557;177;26521;-88
2023/12/28 14:53:35;;;;;;;17.40;4.57;;;12.30;70.50;;;;;;790096;180;27071;-87
2023/12/28 14:56:20;;;;;;;18.33;5.77;;;12.20;72.90;;;;;;822606;173;26473;-87
2023/12/28 14:59:03;;;;;;;125.60;42.73;;;12.20;72.50;;;;;;796673;174;26431;-87
2023/12/28 15:01:56;;;;;;;;;;;;;;;;;;;;;
2023/12/28 15:04:59;;;;;;;;;;;;;;;;;;;;;
2023/12/28 15:07:44;;;;;;;14.63;3.43;;;12.10;72.80;;;;;;804916;178;26445;-87
2023/12/28 15:21:14;;;;;;;40.87;11.87;;;11.80;73.50;;;;;;760864;170;26517;-88
2023/12/28 15:23:42;;;;;;;113.40;30.43;;;11.80;73.60;;;;;;814635;174;26443;-87
2023/12/28 15:26:24;;;;;;;11.53;4.33;;;11.80;73.60;;;;;;813610;175;26457;-87
2023/12/28 15:34:47;;;;;;;11.93;4.07;;;11.60;75.50;;;;;;803136;176;26525;-87
2023/12/28 15:37:19;;;;;;;38.27;12.13;;;11.60;75.00;;;;;;785692;179;26527;-88
2023/12/28 15:39:45;;;;;;;16.87;5.23;;;11.60;76.00;;;;;;794048;179;26515;-88
2023/12/28 15:42:22;;;;;;;39.83;12.60;;;11.50;77.10;;;;;;775876;183;27811;-87
2023/12/28 15:56:06;;;;;;;15.57;4.87;;;11.40;77.90;;;;;;746547;172;27261;-87
2023/12/28 15:58:48;;;;;;;38.23;14.97;;;11.40;78.50;;;;;;780934;181;26523;-88
2023/12/28 16:04:45;;;;;;;124.97;43.20;;;11.40;77.80;;;;;;768885;181;26751;-88
2023/12/28 16:10:29;;;;;;;75.73;27.47;;;11.40;78.00;;;;;;772598;184;26490;-89
2023/12/28 16:35:17;;;;;;;193.57;67.07;;;11.50;80.20;;;;;;802702;177;26526;-88
2023/12/28 16:37:47;;;;;;;108.97;35.67;;;11.50;79.90;;;;;;808151;177;26523;-88
2023/12/28 16:40:45;;;;;;;100.57;32.17;;;11.50;80.40;;;;;;808387;174;26473;-88
2023/12/28 16:54:43;;;;;;;;;;;;;;;;;;;;;
2023/12/28 17:00:19;;;;;;;14.00;6.90;;;11.60;80.80;;;;;;812682;176;26415;-88
2023/12/28 17:02:47;;;;;;;62.30;24.80;;;11.60;80.80;;;;;;801194;177;27025;-88
2023/12/28 17:08:24;;;;;;;10.77;3.90;;;11.50;80.50;;;;;;815741;176;26946;-88
2023/12/28 17:22:45;;;;;;;251.23;79.03;;;11.60;78.90;;;;;;815291;174;26976;-88
2023/12/28 17:25:29;;;;;;;440.00;131.23;;;11.50;77.80;;;;;;827393;173;26467;-88
2023/12/28 17:34:00;;;;;;;389.50;150.40;;;11.40;77.50;;;;;;827328;171;27075;-88
2023/12/28 17:47:41;;;;;;;29.50;11.10;;;11.10;79.30;;;;;;769661;171;26451;-88
2023/12/28 17:50:09;;;;;;;43.40;14.23;;;11.00;79.50;;;;;;779207;184;26814;-88
2023/12/28 17:52:36;;;;;;;223.13;74.93;;;11.00;79.50;;;;;;774939;184;27045;-90
2023/12/28 17:55:03;;;;;;;42.60;15.83;;;11.00;78.50;;;;;;773882;185;26554;-87
2023/12/28 17:57:29;;;;;;;29.97;11.20;;;10.90;79.00;;;;;;773029;185;26563;-88
2023/12/28 17:59:57;;;;;;;42.33;16.50;;;10.90;78.60;;;;;;776438;184;26548;-88
2023/12/28 18:02:24;;;;;;;249.83;101.97;;;10.90;78.80;;;;;;768979;185;26493;-87
2023/12/28 18:04:51;;;;;;;61.27;20.80;;;10.80;78.60;;;;;;768857;186;26528;-89
2023/12/28 18:07:17;;;;;;;88.60;28.70;;;10.80;78.80;;;;;;768816;183;26515;-88
2023/12/28 18:09:44;;;;;;;100.97;31.17;;;10.80;78.40;;;;;;768837;186;27011;-88
2023/12/28 18:12:10;;;;;;;75.07;28.67;;;10.80;79.60;;;;;;769031;186;26469;-88
2023/12/28 18:14:37;;;;;;;213.77;70.40;;;10.70;79.40;;;;;;769247;186;26505;-87
2023/12/28 18:17:04;;;;;;;33.43;11.87;;;10.70;78.50;;;;;;768843;181;26489;-86
2023/12/28 18:19:31;;;;;;;201.90;63.70;;;10.70;78.50;;;;;;768741;186;26534;-88
2023/12/28 18:21:58;;;;;;;168.87;49.87;;;10.70;79.10;;;;;;768419;186;26926;-90
2023/12/28 18:24:24;;;;;;;98.87;25.77;;;10.70;79.60;;;;;;768479;186;26498;-88
2023/12/28 18:26:51;;;;;;;41.77;13.63;;;10.60;80.20;;;;;;768412;185;26530;-89
2023/12/28 18:29:32;;;;;;;207.40;71.77;;;10.60;79.50;;;;;;768336;184;27083;-89
2023/12/28 18:31:59;;;;;;;70.07;26.33;;;10.60;79.70;;;;;;768212;184;26494;-88
2023/12/28 18:34:27;;;;;;;41.60;16.10;;;10.60;79.50;;;;;;768064;186;26490;-89
2023/12/28 18:36:56;;;;;;;36.73;12.27;;;10.60;80.20;;;;;;768189;183;26523;-89
2023/12/28 18:39:27;;;;;;;88.03;30.50;;;10.50;80.10;;;;;;768188;186;26595;-88
2023/12/28 18:41:48;;;;;;;21.87;9.10;;;10.50;82.20;;;;;;767952;186;26589;-88
2023/12/28 18:53:05;;;;;;;51.43;16.13;;;10.50;80.90;;;;;;756338;172;26474;-87
2023/12/28 18:58:51;;;;;;;106.97;38.70;;;10.40;80.70;;;;;;805988;175;27008;-87
2023/12/28 19:01:33;;;;;;;54.27;20.73;;;10.30;81.60;;;;;;814836;174;26456;-87
2023/12/28 19:15:03;;;;;;;17.23;5.40;;;10.30;82.40;;;;;;766669;172;26415;-90
2023/12/28 19:17:30;;;;;;;48.70;18.00;;;10.30;82.50;;;;;;820568;174;26560;-90
2023/12/28 19:19:56;;;;;;;50.53;19.70;;;10.30;82.70;;;;;;822612;175;26908;-88
2023/12/28 19:22:23;;;;;;;117.37;37.47;;;10.20;82.40;;;;;;821625;175;26398;-88
2023/12/28 19:24:49;;;;;;;149.17;42.47;;;10.20;83.00;;;;;;808286;174;26532;-88
2023/12/28 19:27:16;;;;;;;36.00;10.57;;;10.20;82.20;;;;;;815274;173;26438;-90
2023/12/28 19:29:43;;;;;;;50.53;16.47;;;10.20;82.90;;;;;;804038;177;26442;-87
2023/12/28 19:32:11;;;;;;;421.27;161.40;;;10.20;82.90;;;;;;809566;176;26567;-87
2023/12/28 19:34:37;;;;;;;92.17;33.40;;;10.20;82.50;;;;;;813857;174;26973;-88
2023/12/28 19:38:00;;;;;;;74.53;26.80;;;10.20;82.30;;;;;;814990;176;26426;-88
2023/12/28 19:40:11;;;;;;;78.57;32.43;;;10.20;83.00;;;;;;812214;175;26442;-88
2023/12/28 19:42:37;;;;;;;16.50;8.43;;;10.20;82.50;;;;;;811683;176;26467;-88
2023/12/28 19:50:59;;;;;;;12.70;5.07;;;10.20;83.10;;;;;;810329;176;26488;-87
2023/12/28 19:53:26;;;;;;;60.97;19.73;;;10.20;83.30;;;;;;811599;176;26483;-90
2023/12/28 19:55:52;;;;;;;35.07;11.93;;;10.20;83.10;;;;;;811446;176;26430;-87
2023/12/28 19:58:19;;;;;;;23.67;8.87;;;10.10;83.00;;;;;;818830;174;26459;-87
2023/12/28 20:00:46;;;;;;;74.90;26.10;;;10.10;83.90;;;;;;813841;176;26417;-90
2023/12/28 20:03:13;;;;;;;15.67;6.47;;;10.10;83.40;;;;;;814083;176;26459;-87
2023/12/28 20:05:39;;;;;;;19.30;7.57;;;10.10;83.30;;;;;;814048;174;27020;-88
2023/12/28 20:08:07;;;;;;;59.97;25.27;;;10.00;83.40;;;;;;816637;175;26431;-88
2023/12/28 20:10:33;;;;;;;13.43;5.30;;;10.00;83.40;;;;;;815638;175;26441;-88
2023/12/28 20:13:00;;;;;;;37.30;13.43;;;10.10;84.00;;;;;;815489;176;26445;-88
2023/12/28 20:15:27;;;;;;;12.57;5.33;;;10.10;84.00;;;;;;815159;175;26438;-87
2023/12/28 20:17:54;;;;;;;13.73;6.13;;;10.00;84.20;;;;;;814871;176;26508;-86
2023/12/28 20:26:34;;;;;;;16.47;7.60;;;10.00;84.60;;;;;;811933;176;26874;-89
2023/12/28 20:29:24;;;;;;;43.50;14.90;;;10.00;84.30;;;;;;812158;174;26475;-88
2023/12/28 20:32:14;;;;;;;7.80;3.63;;;10.00;84.40;;;;;;814918;174;27009;-87
2023/12/28 20:34:40;;;;;;;170.07;54.43;;;10.00;85.20;;;;;;813019;176;26918;-89
2023/12/28 20:37:08;;;;;;;9.57;4.20;;;10.20;83.30;;;;;;814389;175;26478;-87
2023/12/28 20:39:34;;;;;;;9.73;3.80;;;10.20;83.30;;;;;;814600;174;26426;-89
2023/12/28 20:42:01;;;;;;;19.37;9.60;;;10.20;83.90;;;;;;814385;175;27026;-87
2023/12/28 20:44:27;;;;;;;9.17;3.50;;;10.30;82.90;;;;;;813807;175;26454;-88
2023/12/28 20:46:54;;;;;;;8.13;3.73;;;10.30;83.20;;;;;;813872;176;26968;-89
2023/12/28 21:14:23;;;;;;;7.83;3.30;;;10.60;82.50;;;;;;829675;173;27010;-90
2023/12/28 21:16:49;;;;;;;12.10;4.17;;;10.60;82.50;;;;;;829787;173;26409;-88
2023/12/28 21:19:16;;;;;;;8.03;4.50;;;10.60;81.50;;;;;;832602;170;26449;-88
2023/12/28 21:32:52;;;;;;;25.73;10.20;;;10.70;81.60;;;;;;758920;172;26441;-88
2023/12/28 21:35:19;;;;;;;13.17;4.33;;;10.70;81.50;;;;;;824949;173;26422;-88
2023/12/28 21:37:45;;;;;;;10.30;4.43;;;10.70;80.60;;;;;;834159;171;26410;-88
2023/12/28 21:40:12;;;;;;;9.40;4.20;;;10.70;80.90;;;;;;823656;173;26450;-88
2023/12/28 21:42:41;;;;;;;9.57;4.43;;;10.80;80.40;;;;;;836130;170;26952;-89
2023/12/28 21:45:06;;;;;;;9.90;4.60;;;10.80;81.80;;;;;;826430;169;26440;-88
2023/12/28 21:47:32;;;;;;;5.83;3.37;;;10.80;80.80;;;;;;826533;169;28045;-88
2023/12/28 21:50:03;;;;;;;9.73;4.43;;;10.80;80.70;;;;;;826551;170;26431;-90
2023/12/28 21:52:25;;;;;;;8.77;4.93;;;10.80;81.00;;;;;;826281;171;26459;-89
2023/12/28 21:54:52;;;;;;;8.93;4.40;;;10.80;80.90;;;;;;826343;173;26396;-90
2023/12/28 21:57:18;;;;;;;13.83;4.30;;;10.80;81.20;;;;;;826755;169;26377;-89
2023/12/28 22:16:47;;;;;;;8.67;3.20;;;10.80;81.00;;;;;;774870;182;27191;-90
2023/12/28 22:22:30;;;;;;;8.07;3.13;;;10.80;81.20;;;;;;768175;184;26476;-88
2023/12/28 22:25:19;;;;;;;10.77;3.40;;;10.80;82.20;;;;;;767766;181;26564;-89
2023/12/28 22:38:49;;;;;;;6.97;2.73;;;10.90;79.50;;;;;;770678;170;26440;-88
2023/12/28 22:42:05;;;;;;;10.23;4.03;;;10.90;81.30;;;;;;811350;176;26971;-90
2023/12/28 22:44:32;;;;;;;8.33;3.17;;;10.90;81.80;;;;;;813548;173;26468;-89
2023/12/28 22:46:59;;;;;;;5.73;3.00;;;10.90;82.20;;;;;;828762;173;26389;-87
2023/12/28 22:49:25;;;;;;;8.53;3.43;;;10.90;82.90;;;;;;828371;173;28061;-87
2023/12/28 22:51:52;;;;;;;6.90;2.97;;;10.90;82.30;;;;;;832039;172;26442;-88
2023/12/28 22:54:19;;;;;;;6.30;2.77;;;10.90;81.80;;;;;;811173;177;26458;-88
2023/12/28 22:56:46;;;;;;;16.80;5.80;;;10.90;81.70;;;;;;832125;171;26393;-88
2023/12/28 22:59:12;;;;;;;5.47;2.70;;;11.00;81.40;;;;;;832930;171;26397;-87
2023/12/28 23:01:38;;;;;;;9.57;2.63;;;11.00;80.70;;;;;;811570;176;26426;-88
2023/12/28 23:04:05;;;;;;;6.10;2.80;;;11.00;82.00;;;;;;831071;172;26963;-87
2023/12/28 23:09:24;;;;;;;7.87;2.77;;;10.90;81.90;;;;;;814568;176;26981;-89
2023/12/28 23:11:50;;;;;;;8.50;2.60;;;11.00;81.90;;;;;;794169;179;27007;-88
2023/12/28 23:14:16;;;;;;;11.47;3.03;;;11.00;80.80;;;;;;813833;176;26521;-89
2023/12/28 23:16:43;;;;;;;8.20;3.00;;;11.00;80.20;;;;;;813765;176;26522;-88
2023/12/28 23:19:10;;;;;;;6.60;2.90;;;11.00;81.80;;;;;;813316;173;26575;-89
2023/12/28 23:21:36;;;;;;;4.33;2.50;;;11.00;81.10;;;;;;802153;177;26411;-89
2023/12/28 23:35:06;;;;;;;7.60;2.50;;;11.00;81.20;;;;;;758998;169;26536;-87
2023/12/28 23:37:33;;;;;;;9.77;2.63;;;11.00;81.50;;;;;;802707;176;26974;-87
2023/12/28 23:40:00;;;;;;;8.80;4.43;;;11.00;81.70;;;;;;799688;179;26439;-88
2023/12/28 23:42:26;;;;;;;9.20;2.80;;;11.00;81.80;;;;;;804661;177;26489;-88
2023/12/28 23:44:53;;;;;;;6.67;2.77;;;11.00;82.80;;;;;;804935;177;26422;-88
2023/12/28 23:47:19;;;;;;;19.93;6.77;;;11.00;82.30;;;;;;803475;179;26467;-89
2023/12/28 23:49:46;;;;;;;12.80;3.37;;;11.00;82.40;;;;;;812194;176;27016;-91
2023/12/28 23:52:13;;;;;;;7.33;3.00;;;11.00;82.30;;;;;;814171;176;26432;-89
2023/12/28 23:54:40;;;;;;;7.73;2.97;;;11.00;82.70;;;;;;809593;176;26438;-89
2023/12/28 23:57:07;;;;;;;8.47;3.03;;;11.00;82.70;;;;;;808372;177;26993;-88
2023/12/28 23:59:33;;;;;;;12.20;4.17;;;11.00;82.60;;;;;;808172;177;26430;-88
